sensor_id;sensor_type;location;lat;lon;timestamp;P1;durP1;ratioP1;P2;durP2;ratioP2
10116;SDS011;5098;48.792;9.012;2022-11-21T00:01:24;1.23;;;0.73;;
10116;SDS011;5098;48.792;9.012;2022-11-21T00:03:50;0.75;;;0.60;;
10116;SDS011;5098;48.792;9.012;2022-11-21T00:06:16;1.08;;;0.73;;
10116;SDS011;5098;48.792;9.012;2022-11-21T00:08:43;1.42;;;0.70;;
10116;SDS011;5098;48.792;9.012;2022-11-21T00:11:09;0.75;;;0.70;;
10116;SDS011;5098;48.792;9.012;2022-11-21T00:13:35;0.88;;;0.50;;
10116;SDS011;5098;48.792;9.012;2022-11-21T00:16:02;2.10;;;1.10;;
10116;SDS011;5098;48.792;9.012;2022-11-21T00:18:28;3.95;;;0.80;;
10116;SDS011;5098;48.792;9.012;2022-11-21T00:20:54;0.73;;;0.68;;
10116;SDS011;5098;48.792;9.012;2022-11-21T00:23:20;0.63;;;0.55;;
10116;SDS011;5098;48.792;9.012;2022-11-21T00:25:47;0.60;;;0.50;;
10116;SDS011;5098;48.792;9.012;2022-11-21T00:28:13;0.70;;;0.50;;
10116;SDS011;5098;48.792;9.012;2022-11-21T00:30:39;0.50;;;0.50;;
10116;SDS011;5098;48.792;9.012;2022-11-21T00:33:05;0.75;;;0.70;;
10116;SDS011;5098;48.792;9.012;2022-11-21T00:35:31;0.70;;;0.70;;
10116;SDS011;5098;48.792;9.012;2022-11-21T00:37:57;1.65;;;0.40;;
10116;SDS011;5098;48.792;9.012;2022-11-21T00:40:23;0.88;;;0.60;;
10116;SDS011;5098;48.792;9.012;2022-11-21T00:42:49;0.70;;;0.70;;
10116;SDS011;5098;48.792;9.012;2022-11-21T00:45:15;0.85;;;0.50;;
10116;SDS011;5098;48.792;9.012;2022-11-21T00:47:41;0.60;;;0.60;;
10116;SDS011;5098;48.792;9.012;2022-11-21T00:50:08;0.60;;;0.50;;
10116;SDS011;5098;48.792;9.012;2022-11-21T00:52:34;0.60;;;0.60;;
10116;SDS011;5098;48.792;9.012;2022-11-21T00:55:00;0.80;;;0.77;;
10116;SDS011;5098;48.792;9.012;2022-11-21T00:57:26;0.70;;;0.70;;
10116;SDS011;5098;48.792;9.012;2022-11-21T00:59:52;0.65;;;0.60;;
10116;SDS011;5098;48.792;9.012;2022-11-21T01:02:18;2.45;;;0.50;;
10116;SDS011;5098;48.792;9.012;2022-11-21T01:04:44;0.55;;;0.52;;
10116;SDS011;5098;48.792;9.012;2022-11-21T01:07:11;1.17;;;0.50;;
10116;SDS011;5098;48.792;9.012;2022-11-21T01:09:38;1.08;;;0.70;;
10116;SDS011;5098;48.792;9.012;2022-11-21T01:12:04;0.70;;;0.60;;
10116;SDS011;5098;48.792;9.012;2022-11-21T01:14:30;1.20;;;0.88;;
10116;SDS011;5098;48.792;9.012;2022-11-21T01:16:56;1.15;;;0.85;;
10116;SDS011;5098;48.792;9.012;2022-11-21T01:19:22;0.98;;;0.70;;
10116;SDS011;5098;48.792;9.012;2022-11-21T01:21:48;0.75;;;0.73;;
10116;SDS011;5098;48.792;9.012;2022-11-21T01:24:14;2.75;;;1.02;;
10116;SDS011;5098;48.792;9.012;2022-11-21T01:26:40;0.75;;;0.60;;
10116;SDS011;5098;48.792;9.012;2022-11-21T01:29:06;1.00;;;0.55;;
10116;SDS011;5098;48.792;9.012;2022-11-21T01:31:32;2.00;;;1.20;;
10116;SDS011;5098;48.792;9.012;2022-11-21T01:33:59;1.05;;;0.85;;
10116;SDS011;5098;48.792;9.012;2022-11-21T01:36:29;0.68;;;0.68;;
10116;SDS011;5098;48.792;9.012;2022-11-21T01:38:57;0.60;;;0.60;;
10116;SDS011;5098;48.792;9.012;2022-11-21T01:41:27;3.75;;;0.82;;
10116;SDS011;5098;48.792;9.012;2022-11-21T01:43:57;0.80;;;0.70;;
10116;SDS011;5098;48.792;9.012;2022-11-21T01:46:24;1.15;;;0.70;;
10116;SDS011;5098;48.792;9.012;2022-11-21T01:56:31;1.58;;;0.95;;
10116;SDS011;5098;48.792;9.012;2022-11-21T01:58:58;2.45;;;0.80;;
10116;SDS011;5098;48.792;9.012;2022-11-21T02:01:26;1.33;;;0.80;;
10116;SDS011;5098;48.792;9.012;2022-11-21T02:03:52;1.50;;;0.98;;
10116;SDS011;5098;48.792;9.012;2022-11-21T02:06:19;1.13;;;0.50;;
10116;SDS011;5098;48.792;9.012;2022-11-21T02:08:46;2.35;;;1.05;;
10116;SDS011;5098;48.792;9.012;2022-11-21T02:13:57;1.33;;;0.68;;
10116;SDS011;5098;48.792;9.012;2022-11-21T02:16:24;2.05;;;0.73;;
10116;SDS011;5098;48.792;9.012;2022-11-21T02:18:50;2.38;;;0.73;;
10116;SDS011;5098;48.792;9.012;2022-11-21T02:21:30;0.77;;;0.50;;
10116;SDS011;5098;48.792;9.012;2022-11-21T02:26:27;1.75;;;0.95;;
10116;SDS011;5098;48.792;9.012;2022-11-21T02:28:53;1.00;;;0.68;;
10116;SDS011;5098;48.792;9.012;2022-11-21T02:31:19;4.03;;;0.80;;
10116;SDS011;5098;48.792;9.012;2022-11-21T02:33:45;0.68;;;0.52;;
10116;SDS011;5098;48.792;9.012;2022-11-21T02:39:20;0.95;;;0.60;;
10116;SDS011;5098;48.792;9.012;2022-11-21T02:44:40;1.95;;;0.70;;
10116;SDS011;5098;48.792;9.012;2022-11-21T02:47:08;1.02;;;0.57;;
10116;SDS011;5098;48.792;9.012;2022-11-21T02:52:26;0.70;;;0.60;;
10116;SDS011;5098;48.792;9.012;2022-11-21T02:54:52;2.45;;;0.70;;
10116;SDS011;5098;48.792;9.012;2022-11-21T02:57:18;0.77;;;0.77;;
10116;SDS011;5098;48.792;9.012;2022-11-21T02:59:44;0.70;;;0.63;;
10116;SDS011;5098;48.792;9.012;2022-11-21T03:02:10;6.22;;;0.85;;
10116;SDS011;5098;48.792;9.012;2022-11-21T03:04:36;1.00;;;0.75;;
10116;SDS011;5098;48.792;9.012;2022-11-21T03:07:02;0.50;;;0.50;;
10116;SDS011;5098;48.792;9.012;2022-11-21T03:09:28;0.60;;;0.50;;
10116;SDS011;5098;48.792;9.012;2022-11-21T03:11:54;0.60;;;0.60;;
10116;SDS011;5098;48.792;9.012;2022-11-21T03:14:20;0.50;;;0.50;;
10116;SDS011;5098;48.792;9.012;2022-11-21T03:16:46;1.23;;;0.70;;
10116;SDS011;5098;48.792;9.012;2022-11-21T03:19:12;0.57;;;0.55;;
10116;SDS011;5098;48.792;9.012;2022-11-21T03:21:38;0.73;;;0.70;;
10116;SDS011;5098;48.792;9.012;2022-11-21T03:24:05;1.35;;;1.25;;
10116;SDS011;5098;48.792;9.012;2022-11-21T03:26:31;1.00;;;0.60;;
10116;SDS011;5098;48.792;9.012;2022-11-21T03:28:57;0.60;;;0.57;;
10116;SDS011;5098;48.792;9.012;2022-11-21T03:31:23;0.70;;;0.68;;
10116;SDS011;5098;48.792;9.012;2022-11-21T03:33:49;0.50;;;0.50;;
10116;SDS011;5098;48.792;9.012;2022-11-21T03:36:15;0.77;;;0.57;;
10116;SDS011;5098;48.792;9.012;2022-11-21T03:38:41;0.70;;;0.70;;
10116;SDS011;5098;48.792;9.012;2022-11-21T03:41:07;5.03;;;0.98;;
10116;SDS011;5098;48.792;9.012;2022-11-21T03:43:53;1.50;;;0.60;;
10116;SDS011;5098;48.792;9.012;2022-11-21T03:46:19;0.80;;;0.50;;
10116;SDS011;5098;48.792;9.012;2022-11-21T03:48:45;1.40;;;0.80;;
10116;SDS011;5098;48.792;9.012;2022-11-21T03:51:11;1.60;;;0.75;;
10116;SDS011;5098;48.792;9.012;2022-11-21T03:53:37;2.25;;;0.80;;
10116;SDS011;5098;48.792;9.012;2022-11-21T03:56:04;0.90;;;0.70;;
10116;SDS011;5098;48.792;9.012;2022-11-21T03:58:30;0.60;;;0.60;;
10116;SDS011;5098;48.792;9.012;2022-11-21T04:00:56;1.35;;;0.60;;
10116;SDS011;5098;48.792;9.012;2022-11-21T04:03:22;0.70;;;0.70;;
10116;SDS011;5098;48.792;9.012;2022-11-21T04:05:48;0.77;;;0.60;;
10116;SDS011;5098;48.792;9.012;2022-11-21T04:08:14;0.60;;;0.50;;
10116;SDS011;5098;48.792;9.012;2022-11-21T04:10:51;0.95;;;0.70;;
10116;SDS011;5098;48.792;9.012;2022-11-21T04:13:17;0.85;;;0.60;;
10116;SDS011;5098;48.792;9.012;2022-11-21T04:15:43;1.45;;;0.80;;
10116;SDS011;5098;48.792;9.012;2022-11-21T04:18:10;1.05;;;0.80;;
10116;SDS011;5098;48.792;9.012;2022-11-21T04:20:36;0.70;;;0.68;;
10116;SDS011;5098;48.792;9.012;2022-11-21T04:23:03;1.52;;;0.90;;
10116;SDS011;5098;48.792;9.012;2022-11-21T04:25:29;1.00;;;0.70;;
10116;SDS011;5098;48.792;9.012;2022-11-21T04:27:58;1.10;;;0.77;;
10116;SDS011;5098;48.792;9.012;2022-11-21T04:30:25;1.10;;;0.80;;
10116;SDS011;5098;48.792;9.012;2022-11-21T04:32:54;3.13;;;0.98;;
10116;SDS011;5098;48.792;9.012;2022-11-21T04:35:21;1.88;;;0.68;;
10116;SDS011;5098;48.792;9.012;2022-11-21T04:37:48;0.73;;;0.60;;
10116;SDS011;5098;48.792;9.012;2022-11-21T04:40:14;1.88;;;0.73;;
10116;SDS011;5098;48.792;9.012;2022-11-21T04:42:41;1.20;;;0.80;;
10116;SDS011;5098;48.792;9.012;2022-11-21T04:45:07;2.33;;;0.80;;
10116;SDS011;5098;48.792;9.012;2022-11-21T04:47:40;1.70;;;1.00;;
10116;SDS011;5098;48.792;9.012;2022-11-21T04:50:07;2.40;;;0.90;;
10116;SDS011;5098;48.792;9.012;2022-11-21T04:52:34;4.03;;;1.00;;
10116;SDS011;5098;48.792;9.012;2022-11-21T04:55:00;1.42;;;1.10;;
10116;SDS011;5098;48.792;9.012;2022-11-21T04:57:26;2.20;;;1.25;;
10116;SDS011;5098;48.792;9.012;2022-11-21T04:59:53;0.75;;;0.75;;
10116;SDS011;5098;48.792;9.012;2022-11-21T05:02:19;2.78;;;1.00;;
10116;SDS011;5098;48.792;9.012;2022-11-21T05:04:45;3.17;;;0.95;;
10116;SDS011;5098;48.792;9.012;2022-11-21T05:07:11;1.40;;;1.27;;
10116;SDS011;5098;48.792;9.012;2022-11-21T05:09:37;2.28;;;1.67;;
10116;SDS011;5098;48.792;9.012;2022-11-21T05:12:04;2.65;;;1.20;;
10116;SDS011;5098;48.792;9.012;2022-11-21T05:14:48;1.95;;;0.88;;
10116;SDS011;5098;48.792;9.012;2022-11-21T05:17:14;5.03;;;1.40;;
10116;SDS011;5098;48.792;9.012;2022-11-21T05:19:40;2.85;;;1.23;;
10116;SDS011;5098;48.792;9.012;2022-11-21T05:22:06;3.05;;;1.45;;
10116;SDS011;5098;48.792;9.012;2022-11-21T05:24:33;2.15;;;1.25;;
10116;SDS011;5098;48.792;9.012;2022-11-21T05:26:59;2.55;;;1.17;;
10116;SDS011;5098;48.792;9.012;2022-11-21T05:29:25;2.55;;;1.33;;
10116;SDS011;5098;48.792;9.012;2022-11-21T05:31:51;1.65;;;1.40;;
10116;SDS011;5098;48.792;9.012;2022-11-21T05:34:17;1.60;;;1.40;;
10116;SDS011;5098;48.792;9.012;2022-11-21T05:36:43;1.35;;;1.15;;
10116;SDS011;5098;48.792;9.012;2022-11-21T05:39:09;2.70;;;1.10;;
10116;SDS011;5098;48.792;9.012;2022-11-21T05:41:35;1.95;;;1.25;;
10116;SDS011;5098;48.792;9.012;2022-11-21T05:44:01;2.70;;;1.67;;
10116;SDS011;5098;48.792;9.012;2022-11-21T05:46:27;1.40;;;1.30;;
10116;SDS011;5098;48.792;9.012;2022-11-21T05:48:53;1.85;;;1.23;;
10116;SDS011;5098;48.792;9.012;2022-11-21T05:51:20;3.72;;;1.00;;
10116;SDS011;5098;48.792;9.012;2022-11-21T05:53:46;2.50;;;1.23;;
10116;SDS011;5098;48.792;9.012;2022-11-21T05:56:13;2.25;;;1.00;;
10116;SDS011;5098;48.792;9.012;2022-11-21T05:58:40;2.20;;;1.00;;
10116;SDS011;5098;48.792;9.012;2022-11-21T06:01:06;1.80;;;0.80;;
10116;SDS011;5098;48.792;9.012;2022-11-21T06:03:34;1.63;;;1.10;;
10116;SDS011;5098;48.792;9.012;2022-11-21T06:06:13;1.50;;;0.98;;
10116;SDS011;5098;48.792;9.012;2022-11-21T06:08:45;2.20;;;1.08;;
10116;SDS011;5098;48.792;9.012;2022-11-21T06:11:13;1.60;;;1.40;;
10116;SDS011;5098;48.792;9.012;2022-11-21T06:13:39;1.30;;;1.20;;
10116;SDS011;5098;48.792;9.012;2022-11-21T06:16:06;1.98;;;0.82;;
10116;SDS011;5098;48.792;9.012;2022-11-21T06:18:37;1.52;;;1.00;;
10116;SDS011;5098;48.792;9.012;2022-11-21T06:21:04;1.48;;;1.38;;
10116;SDS011;5098;48.792;9.012;2022-11-21T06:23:31;1.67;;;1.35;;
10116;SDS011;5098;48.792;9.012;2022-11-21T06:25:58;2.05;;;1.50;;
10116;SDS011;5098;48.792;9.012;2022-11-21T06:28:25;2.10;;;1.30;;
10116;SDS011;5098;48.792;9.012;2022-11-21T06:30:51;4.50;;;1.90;;
10116;SDS011;5098;48.792;9.012;2022-11-21T06:33:17;2.53;;;1.50;;
10116;SDS011;5098;48.792;9.012;2022-11-21T06:35:44;5.93;;;1.55;;
10116;SDS011;5098;48.792;9.012;2022-11-21T06:38:10;6.25;;;2.03;;
10116;SDS011;5098;48.792;9.012;2022-11-21T06:40:42;5.82;;;1.88;;
10116;SDS011;5098;48.792;9.012;2022-11-21T06:43:08;1.73;;;1.27;;
10116;SDS011;5098;48.792;9.012;2022-11-21T06:45:34;2.00;;;1.20;;
10116;SDS011;5098;48.792;9.012;2022-11-21T06:48:01;2.55;;;1.65;;
10116;SDS011;5098;48.792;9.012;2022-11-21T06:50:28;2.30;;;1.40;;
10116;SDS011;5098;48.792;9.012;2022-11-21T06:52:58;2.65;;;1.48;;
10116;SDS011;5098;48.792;9.012;2022-11-21T06:55:24;2.00;;;1.70;;
10116;SDS011;5098;48.792;9.012;2022-11-21T06:57:52;3.85;;;1.90;;
10116;SDS011;5098;48.792;9.012;2022-11-21T07:00:18;7.32;;;1.83;;
10116;SDS011;5098;48.792;9.012;2022-11-21T07:02:45;2.55;;;1.67;;
10116;SDS011;5098;48.792;9.012;2022-11-21T07:05:11;3.83;;;1.60;;
10116;SDS011;5098;48.792;9.012;2022-11-21T07:07:37;4.72;;;1.50;;
10116;SDS011;5098;48.792;9.012;2022-11-21T07:10:03;3.70;;;1.73;;
10116;SDS011;5098;48.792;9.012;2022-11-21T07:12:29;6.70;;;1.90;;
10116;SDS011;5098;48.792;9.012;2022-11-21T07:15:14;4.25;;;1.77;;
10116;SDS011;5098;48.792;9.012;2022-11-21T07:17:40;3.35;;;2.35;;
10116;SDS011;5098;48.792;9.012;2022-11-21T07:20:06;4.65;;;2.30;;
10116;SDS011;5098;48.792;9.012;2022-11-21T07:22:32;6.72;;;2.42;;
10116;SDS011;5098;48.792;9.012;2022-11-21T07:24:58;6.10;;;2.22;;
10116;SDS011;5098;48.792;9.012;2022-11-21T07:27:24;5.22;;;1.98;;
10116;SDS011;5098;48.792;9.012;2022-11-21T07:29:50;3.90;;;1.98;;
10116;SDS011;5098;48.792;9.012;2022-11-21T07:32:16;8.10;;;1.75;;
10116;SDS011;5098;48.792;9.012;2022-11-21T07:34:42;2.97;;;1.70;;
10116;SDS011;5098;48.792;9.012;2022-11-21T07:37:09;3.10;;;1.85;;
10116;SDS011;5098;48.792;9.012;2022-11-21T07:39:35;3.65;;;2.00;;
10116;SDS011;5098;48.792;9.012;2022-11-21T07:42:01;4.78;;;2.33;;
10116;SDS011;5098;48.792;9.012;2022-11-21T07:44:27;3.88;;;1.73;;
10116;SDS011;5098;48.792;9.012;2022-11-21T07:46:53;5.50;;;1.63;;
10116;SDS011;5098;48.792;9.012;2022-11-21T07:49:20;5.30;;;1.50;;
10116;SDS011;5098;48.792;9.012;2022-11-21T07:51:46;4.63;;;2.00;;
10116;SDS011;5098;48.792;9.012;2022-11-21T07:54:12;3.35;;;1.48;;
10116;SDS011;5098;48.792;9.012;2022-11-21T07:56:38;3.15;;;1.40;;
10116;SDS011;5098;48.792;9.012;2022-11-21T07:59:04;5.10;;;1.73;;
10116;SDS011;5098;48.792;9.012;2022-11-21T08:01:30;4.35;;;1.48;;
10116;SDS011;5098;48.792;9.012;2022-11-21T08:03:56;3.15;;;1.60;;
10116;SDS011;5098;48.792;9.012;2022-11-21T08:06:22;6.65;;;1.50;;
10116;SDS011;5098;48.792;9.012;2022-11-21T08:08:52;3.45;;;1.50;;
10116;SDS011;5098;48.792;9.012;2022-11-21T08:11:18;3.42;;;1.70;;
10116;SDS011;5098;48.792;9.012;2022-11-21T08:13:44;2.30;;;1.60;;
10116;SDS011;5098;48.792;9.012;2022-11-21T08:16:10;4.53;;;1.87;;
10116;SDS011;5098;48.792;9.012;2022-11-21T08:18:36;5.60;;;2.10;;
10116;SDS011;5098;48.792;9.012;2022-11-21T08:21:02;3.00;;;1.83;;
10116;SDS011;5098;48.792;9.012;2022-11-21T08:23:29;2.33;;;1.73;;
10116;SDS011;5098;48.792;9.012;2022-11-21T08:25:56;2.57;;;1.63;;
10116;SDS011;5098;48.792;9.012;2022-11-21T08:28:22;5.50;;;1.57;;
10116;SDS011;5098;48.792;9.012;2022-11-21T08:30:48;2.00;;;1.80;;
10116;SDS011;5098;48.792;9.012;2022-11-21T08:33:14;5.07;;;1.23;;
10116;SDS011;5098;48.792;9.012;2022-11-21T08:35:40;3.83;;;1.80;;
10116;SDS011;5098;48.792;9.012;2022-11-21T08:38:06;2.00;;;1.30;;
10116;SDS011;5098;48.792;9.012;2022-11-21T08:40:32;3.30;;;1.60;;
10116;SDS011;5098;48.792;9.012;2022-11-21T08:43:06;3.00;;;1.57;;
10116;SDS011;5098;48.792;9.012;2022-11-21T08:45:32;3.03;;;1.63;;
10116;SDS011;5098;48.792;9.012;2022-11-21T08:47:59;3.73;;;1.63;;
10116;SDS011;5098;48.792;9.012;2022-11-21T08:50:25;3.73;;;1.73;;
10116;SDS011;5098;48.792;9.012;2022-11-21T08:52:52;2.63;;;1.60;;
10116;SDS011;5098;48.792;9.012;2022-11-21T08:55:18;4.10;;;1.60;;
10116;SDS011;5098;48.792;9.012;2022-11-21T08:57:44;3.83;;;1.50;;
10116;SDS011;5098;48.792;9.012;2022-11-21T09:00:11;2.67;;;1.50;;
10116;SDS011;5098;48.792;9.012;2022-11-21T09:02:37;2.37;;;1.10;;
10116;SDS011;5098;48.792;9.012;2022-11-21T09:05:03;4.50;;;1.40;;
10116;SDS011;5098;48.792;9.012;2022-11-21T09:07:29;5.40;;;2.70;;
10116;SDS011;5098;48.792;9.012;2022-11-21T09:09:55;4.50;;;1.87;;
10116;SDS011;5098;48.792;9.012;2022-11-21T09:12:21;2.70;;;1.20;;
10116;SDS011;5098;48.792;9.012;2022-11-21T09:14:47;2.60;;;1.47;;
10116;SDS011;5098;48.792;9.012;2022-11-21T09:17:32;1.77;;;1.00;;
10116;SDS011;5098;48.792;9.012;2022-11-21T09:20:17;3.10;;;1.33;;
10116;SDS011;5098;48.792;9.012;2022-11-21T09:22:43;3.80;;;1.40;;
10116;SDS011;5098;48.792;9.012;2022-11-21T09:25:09;3.57;;;1.37;;
10116;SDS011;5098;48.792;9.012;2022-11-21T09:27:35;3.80;;;1.40;;
10116;SDS011;5098;48.792;9.012;2022-11-21T09:30:01;3.27;;;1.50;;
10116;SDS011;5098;48.792;9.012;2022-11-21T09:32:27;5.00;;;2.00;;
10116;SDS011;5098;48.792;9.012;2022-11-21T09:34:53;2.73;;;1.90;;
10116;SDS011;5098;48.792;9.012;2022-11-21T09:37:19;3.40;;;1.50;;
10116;SDS011;5098;48.792;9.012;2022-11-21T09:39:45;5.80;;;1.77;;
10116;SDS011;5098;48.792;9.012;2022-11-21T09:42:19;5.73;;;1.90;;
10116;SDS011;5098;48.792;9.012;2022-11-21T09:47:24;2.77;;;1.60;;
10116;SDS011;5098;48.792;9.012;2022-11-21T09:50:15;2.20;;;1.20;;
10116;SDS011;5098;48.792;9.012;2022-11-21T09:55:20;3.73;;;1.30;;
10116;SDS011;5098;48.792;9.012;2022-11-21T09:57:49;2.70;;;1.33;;
10116;SDS011;5098;48.792;9.012;2022-11-21T10:00:18;4.77;;;1.50;;
10116;SDS011;5098;48.792;9.012;2022-11-21T10:02:45;3.20;;;1.50;;
10116;SDS011;5098;48.792;9.012;2022-11-21T10:05:11;2.17;;;1.17;;
10116;SDS011;5098;48.792;9.012;2022-11-21T10:07:38;1.60;;;0.93;;
10116;SDS011;5098;48.792;9.012;2022-11-21T10:15:14;3.93;;;1.30;;
10116;SDS011;5098;48.792;9.012;2022-11-21T10:22:58;5.80;;;1.70;;
10116;SDS011;5098;48.792;9.012;2022-11-21T10:25:28;6.20;;;1.40;;
10116;SDS011;5098;48.792;9.012;2022-11-21T10:28:17;1.90;;;1.20;;
10116;SDS011;5098;48.792;9.012;2022-11-21T10:30:42;4.67;;;2.33;;
10116;SDS011;5098;48.792;9.012;2022-11-21T10:33:14;5.63;;;1.50;;
10116;SDS011;5098;48.792;9.012;2022-11-21T10:35:41;3.30;;;1.70;;
10116;SDS011;5098;48.792;9.012;2022-11-21T10:38:15;2.30;;;1.40;;
10116;SDS011;5098;48.792;9.012;2022-11-21T10:40:48;2.20;;;0.90;;
10116;SDS011;5098;48.792;9.012;2022-11-21T10:46:06;4.23;;;1.80;;
10116;SDS011;5098;48.792;9.012;2022-11-21T10:48:32;3.60;;;1.20;;
10116;SDS011;5098;48.792;9.012;2022-11-21T10:53:33;4.77;;;1.50;;
10116;SDS011;5098;48.792;9.012;2022-11-21T10:56:21;7.53;;;1.90;;
10116;SDS011;5098;48.792;9.012;2022-11-21T10:58:51;5.33;;;2.20;;
10116;SDS011;5098;48.792;9.012;2022-11-21T11:01:38;1.93;;;1.07;;
10116;SDS011;5098;48.792;9.012;2022-11-21T11:04:05;2.67;;;0.90;;
10116;SDS011;5098;48.792;9.012;2022-11-21T11:06:31;2.80;;;1.30;;
10116;SDS011;5098;48.792;9.012;2022-11-21T11:08:57;2.50;;;1.80;;
10116;SDS011;5098;48.792;9.012;2022-11-21T11:11:23;3.70;;;1.30;;
10116;SDS011;5098;48.792;9.012;2022-11-21T11:16:19;2.90;;;1.30;;
10116;SDS011;5098;48.792;9.012;2022-11-21T11:21:13;1.87;;;1.00;;
10116;SDS011;5098;48.792;9.012;2022-11-21T11:23:40;3.47;;;1.40;;
10116;SDS011;5098;48.792;9.012;2022-11-21T11:28:45;5.23;;;1.57;;
10116;SDS011;5098;48.792;9.012;2022-11-21T11:31:11;2.17;;;1.30;;
10116;SDS011;5098;48.792;9.012;2022-11-21T11:36:35;2.37;;;1.00;;
10116;SDS011;5098;48.792;9.012;2022-11-21T11:38:59;2.60;;;1.17;;
10116;SDS011;5098;48.792;9.012;2022-11-21T11:44:49;3.50;;;1.63;;
10116;SDS011;5098;48.792;9.012;2022-11-21T11:47:30;4.03;;;1.40;;
10116;SDS011;5098;48.792;9.012;2022-11-21T11:50:09;2.57;;;1.50;;
10116;SDS011;5098;48.792;9.012;2022-11-21T11:52:58;3.47;;;1.67;;
10116;SDS011;5098;48.792;9.012;2022-11-21T11:58:05;2.70;;;1.63;;
10116;SDS011;5098;48.792;9.012;2022-11-21T12:03:14;2.00;;;1.60;;
10116;SDS011;5098;48.792;9.012;2022-11-21T12:05:56;2.27;;;1.10;;
10116;SDS011;5098;48.792;9.012;2022-11-21T12:08:25;1.87;;;1.20;;
10116;SDS011;5098;48.792;9.012;2022-11-21T12:10:54;1.43;;;0.80;;
10116;SDS011;5098;48.792;9.012;2022-11-21T12:13:50;4.53;;;1.37;;
10116;SDS011;5098;48.792;9.012;2022-11-21T12:16:17;4.80;;;1.30;;
10116;SDS011;5098;48.792;9.012;2022-11-21T12:18:54;2.77;;;1.20;;
10116;SDS011;5098;48.792;9.012;2022-11-21T12:21:21;2.83;;;1.00;;
10116;SDS011;5098;48.792;9.012;2022-11-21T12:31:31;4.50;;;1.40;;
10116;SDS011;5098;48.792;9.012;2022-11-21T12:42:10;3.93;;;2.13;;
10116;SDS011;5098;48.792;9.012;2022-11-21T12:47:19;4.13;;;1.30;;
10116;SDS011;5098;48.792;9.012;2022-11-21T12:49:52;3.50;;;1.20;;
10116;SDS011;5098;48.792;9.012;2022-11-21T12:52:41;5.50;;;1.27;;
10116;SDS011;5098;48.792;9.012;2022-11-21T12:55:39;3.03;;;1.40;;
10116;SDS011;5098;48.792;9.012;2022-11-21T13:05:54;4.80;;;2.90;;
10116;SDS011;5098;48.792;9.012;2022-11-21T13:08:22;4.53;;;1.10;;
10116;SDS011;5098;48.792;9.012;2022-11-21T13:10:51;3.53;;;1.10;;
10116;SDS011;5098;48.792;9.012;2022-11-21T13:13:41;3.10;;;1.00;;
10116;SDS011;5098;48.792;9.012;2022-11-21T13:16:09;3.83;;;1.37;;
10116;SDS011;5098;48.792;9.012;2022-11-21T13:18:43;3.63;;;1.53;;
10116;SDS011;5098;48.792;9.012;2022-11-21T13:23:55;3.50;;;1.57;;
10116;SDS011;5098;48.792;9.012;2022-11-21T13:29:09;4.53;;;1.87;;
10116;SDS011;5098;48.792;9.012;2022-11-21T13:31:35;4.33;;;1.30;;
10116;SDS011;5098;48.792;9.012;2022-11-21T13:34:02;46.97;;;4.10;;
10116;SDS011;5098;48.792;9.012;2022-11-21T13:49:40;4.13;;;1.63;;
10116;SDS011;5098;48.792;9.012;2022-11-21T14:10:40;4.70;;;1.60;;
10116;SDS011;5098;48.792;9.012;2022-11-21T14:13:13;6.00;;;1.58;;
10116;SDS011;5098;48.792;9.012;2022-11-21T14:15:42;2.70;;;1.30;;
10116;SDS011;5098;48.792;9.012;2022-11-21T14:18:22;3.37;;;1.33;;
10116;SDS011;5098;48.792;9.012;2022-11-21T14:20:52;4.37;;;2.03;;
10116;SDS011;5098;48.792;9.012;2022-11-21T14:23:21;2.33;;;1.63;;
10116;SDS011;5098;48.792;9.012;2022-11-21T14:25:49;3.93;;;1.70;;
10116;SDS011;5098;48.792;9.012;2022-11-21T14:28:23;4.13;;;1.77;;
10116;SDS011;5098;48.792;9.012;2022-11-21T14:30:54;3.23;;;2.00;;
10116;SDS011;5098;48.792;9.012;2022-11-21T14:35:48;8.57;;;2.27;;
10116;SDS011;5098;48.792;9.012;2022-11-21T14:38:14;3.67;;;1.60;;
10116;SDS011;5098;48.792;9.012;2022-11-21T14:40:40;2.20;;;1.70;;
10116;SDS011;5098;48.792;9.012;2022-11-21T14:45:51;3.70;;;2.20;;
10116;SDS011;5098;48.792;9.012;2022-11-21T14:48:17;4.60;;;1.87;;
10116;SDS011;5098;48.792;9.012;2022-11-21T14:50:50;7.20;;;2.43;;
10116;SDS011;5098;48.792;9.012;2022-11-21T14:53:16;7.27;;;2.57;;
10116;SDS011;5098;48.792;9.012;2022-11-21T14:55:42;6.37;;;2.97;;
10116;SDS011;5098;48.792;9.012;2022-11-21T14:58:14;5.50;;;2.40;;
10116;SDS011;5098;48.792;9.012;2022-11-21T15:00:41;6.03;;;2.85;;
10116;SDS011;5098;48.792;9.012;2022-11-21T15:03:25;6.30;;;2.58;;
10116;SDS011;5098;48.792;9.012;2022-11-21T15:05:59;4.87;;;1.73;;
10116;SDS011;5098;48.792;9.012;2022-11-21T15:08:25;6.70;;;2.10;;
10116;SDS011;5098;48.792;9.012;2022-11-21T15:10:51;6.50;;;2.10;;
10116;SDS011;5098;48.792;9.012;2022-11-21T15:13:18;5.95;;;1.88;;
10116;SDS011;5098;48.792;9.012;2022-11-21T15:15:48;2.95;;;1.60;;
10116;SDS011;5098;48.792;9.012;2022-11-21T15:18:20;4.45;;;1.70;;
10116;SDS011;5098;48.792;9.012;2022-11-21T15:20:48;5.43;;;2.25;;
10116;SDS011;5098;48.792;9.012;2022-11-21T15:23:28;7.82;;;1.85;;
10116;SDS011;5098;48.792;9.012;2022-11-21T15:25:54;7.82;;;1.73;;
10116;SDS011;5098;48.792;9.012;2022-11-21T15:28:21;4.20;;;1.65;;
10116;SDS011;5098;48.792;9.012;2022-11-21T15:30:47;8.15;;;2.13;;
10116;SDS011;5098;48.792;9.012;2022-11-21T15:33:54;3.67;;;1.92;;
10116;SDS011;5098;48.792;9.012;2022-11-21T15:36:20;4.93;;;2.08;;
10116;SDS011;5098;48.792;9.012;2022-11-21T15:41:22;4.72;;;1.73;;
10116;SDS011;5098;48.792;9.012;2022-11-21T15:46:28;4.72;;;2.30;;
10116;SDS011;5098;48.792;9.012;2022-11-21T15:48:58;2.65;;;1.83;;
10116;SDS011;5098;48.792;9.012;2022-11-21T15:51:25;4.13;;;1.98;;
10116;SDS011;5098;48.792;9.012;2022-11-21T15:53:51;4.65;;;1.95;;
10116;SDS011;5098;48.792;9.012;2022-11-21T15:56:18;3.87;;;1.90;;
10116;SDS011;5098;48.792;9.012;2022-11-21T15:58:44;4.15;;;2.20;;
10116;SDS011;5098;48.792;9.012;2022-11-21T16:01:18;4.43;;;1.60;;
10116;SDS011;5098;48.792;9.012;2022-11-21T16:03:44;5.93;;;1.77;;
10116;SDS011;5098;48.792;9.012;2022-11-21T16:06:12;7.88;;;1.80;;
10116;SDS011;5098;48.792;9.012;2022-11-21T16:08:38;5.68;;;2.28;;
10116;SDS011;5098;48.792;9.012;2022-11-21T16:11:05;6.38;;;2.15;;
10116;SDS011;5098;48.792;9.012;2022-11-21T16:13:31;3.80;;;1.98;;
10116;SDS011;5098;48.792;9.012;2022-11-21T16:15:58;4.30;;;1.70;;
10116;SDS011;5098;48.792;9.012;2022-11-21T16:18:25;9.15;;;3.22;;
10116;SDS011;5098;48.792;9.012;2022-11-21T16:20:51;7.55;;;3.90;;
10116;SDS011;5098;48.792;9.012;2022-11-21T16:23:17;8.13;;;2.45;;
10116;SDS011;5098;48.792;9.012;2022-11-21T16:25:52;5.72;;;2.97;;
10116;SDS011;5098;48.792;9.012;2022-11-21T16:28:19;4.35;;;2.20;;
10116;SDS011;5098;48.792;9.012;2022-11-21T16:30:45;6.22;;;2.75;;
10116;SDS011;5098;48.792;9.012;2022-11-21T16:33:11;7.95;;;2.70;;
10116;SDS011;5098;48.792;9.012;2022-11-21T16:35:37;6.40;;;2.85;;
10116;SDS011;5098;48.792;9.012;2022-11-21T16:38:07;3.92;;;2.00;;
10116;SDS011;5098;48.792;9.012;2022-11-21T16:40:33;4.30;;;2.03;;
10116;SDS011;5098;48.792;9.012;2022-11-21T16:43:06;3.92;;;2.05;;
10116;SDS011;5098;48.792;9.012;2022-11-21T16:45:33;5.43;;;2.45;;
10116;SDS011;5098;48.792;9.012;2022-11-21T16:47:59;7.95;;;2.45;;
10116;SDS011;5098;48.792;9.012;2022-11-21T16:50:25;9.75;;;2.95;;
10116;SDS011;5098;48.792;9.012;2022-11-21T16:52:51;10.68;;;3.28;;
10116;SDS011;5098;48.792;9.012;2022-11-21T16:55:17;7.50;;;2.30;;
10116;SDS011;5098;48.792;9.012;2022-11-21T16:57:43;8.13;;;2.72;;
10116;SDS011;5098;48.792;9.012;2022-11-21T17:00:10;6.35;;;2.80;;
10116;SDS011;5098;48.792;9.012;2022-11-21T17:02:36;4.15;;;2.50;;
10116;SDS011;5098;48.792;9.012;2022-11-21T17:05:03;6.68;;;2.60;;
10116;SDS011;5098;48.792;9.012;2022-11-21T17:07:32;8.70;;;2.33;;
10116;SDS011;5098;48.792;9.012;2022-11-21T17:09:59;2.88;;;1.95;;
10116;SDS011;5098;48.792;9.012;2022-11-21T17:12:25;6.22;;;2.17;;
10116;SDS011;5098;48.792;9.012;2022-11-21T17:14:51;5.85;;;2.83;;
10116;SDS011;5098;48.792;9.012;2022-11-21T17:17:17;9.93;;;2.83;;
10116;SDS011;5098;48.792;9.012;2022-11-21T17:19:44;7.25;;;3.25;;
10116;SDS011;5098;48.792;9.012;2022-11-21T17:22:10;4.72;;;3.35;;